AAL2544 KCLT-KDFW
Flight info
| Callsign | AAL2544 |
|---|---|
| Flight time | 2h 25m |
| Altitude | 40000 |
| Route | ESTRR5 IPTAY CHOPZ THRSR VLKNN Q30 IZAAC YUYUN WHINY4 |
| Aircraft | B772/H-SDE2E3FGHIJ5LORVWXY/LB1D1 |
Departure
| Time | 2026-05-06 18:26 |
|---|---|
| Airport | Charlotte Douglas International Airport (KCLT) |
Arrival
| Time | 2026-05-06 20:51 |
|---|---|
| Airport | Dallas Fort Worth International Airport (KDFW) |
| Time | Latitude | Longitude | Altitude | Speed | Heading |
|---|---|---|---|---|---|
| 2026-05-06 18:11 | 35.21975 | -80.94703 | 737 ft | 0 kts | 19° |
| 2026-05-06 18:15 | 35.21973 | -80.94704 | 737 ft | 2 kts | 19° |
| 2026-05-06 18:15 | 35.21950 | -80.94714 | 735 ft | 4 kts | 23° |
| 2026-05-06 18:16 | 35.21925 | -80.94727 | 736 ft | 4 kts | 21° |
| 2026-05-06 18:16 | 35.21899 | -80.94738 | 736 ft | 4 kts | 16° |
| 2026-05-06 18:16 | 35.21873 | -80.94745 | 736 ft | 4 kts | 2° |
| 2026-05-06 18:16 | 35.21849 | -80.94740 | 742 ft | 3 kts | 320° |
| 2026-05-06 18:17 | 35.21847 | -80.94738 | 742 ft | 0 kts | 316° |
| 2026-05-06 18:20 | 35.21857 | -80.94750 | 742 ft | 6 kts | 316° |
| 2026-05-06 18:20 | 35.21877 | -80.94800 | 737 ft | 7 kts | 278° |
| 2026-05-06 18:21 | 35.21876 | -80.94867 | 737 ft | 10 kts | 266° |
| 2026-05-06 18:21 | 35.21867 | -80.94955 | 737 ft | 10 kts | 262° |
| 2026-05-06 18:21 | 35.21881 | -80.95037 | 737 ft | 10 kts | 324° |
| 2026-05-06 18:21 | 35.21962 | -80.95052 | 738 ft | 14 kts | 356° |
| 2026-05-06 18:22 | 35.22061 | -80.95060 | 738 ft | 14 kts | 356° |
| 2026-05-06 18:22 | 35.22160 | -80.95068 | 738 ft | 14 kts | 355° |
| 2026-05-06 18:22 | 35.22259 | -80.95077 | 738 ft | 14 kts | 356° |
| 2026-05-06 18:22 | 35.22359 | -80.95084 | 738 ft | 14 kts | 354° |
| 2026-05-06 18:23 | 35.22458 | -80.95092 | 738 ft | 14 kts | 358° |
| 2026-05-06 18:23 | 35.22557 | -80.95099 | 738 ft | 14 kts | 355° |
| 2026-05-06 18:23 | 35.22649 | -80.95108 | 738 ft | 10 kts | 354° |
| 2026-05-06 18:23 | 35.22711 | -80.95115 | 738 ft | 7 kts | 348° |
| 2026-05-06 18:24 | 35.22732 | -80.95148 | 738 ft | 4 kts | 282° |
| 2026-05-06 18:24 | 35.22732 | -80.95185 | 739 ft | 4 kts | 268° |
| 2026-05-06 18:24 | 35.22730 | -80.95232 | 740 ft | 6 kts | 267° |
| 2026-05-06 18:24 | 35.22728 | -80.95286 | 742 ft | 6 kts | 268° |
| 2026-05-06 18:25 | 35.22716 | -80.95316 | 741 ft | 2 kts | 205° |
| 2026-05-06 18:25 | 35.22704 | -80.95315 | 741 ft | 0 kts | 178° |
| 2026-05-06 18:25 | 35.22620 | -80.95309 | 743 ft | 42 kts | 176° |
| 2026-05-06 18:26 | 35.22070 | -80.95262 | 744 ft | 114 kts | 175° |
| 2026-05-06 18:26 | 35.21063 | -80.95173 | 794 ft | 169 kts | 175° |
| 2026-05-06 18:26 | 35.19914 | -80.95028 | 1536 ft | 170 kts | 176° |
| 2026-05-06 18:26 | 35.18797 | -80.94962 | 2613 ft | 155 kts | 185° |
| 2026-05-06 18:27 | 35.17693 | -80.94987 | 2995 ft | 168 kts | 187° |
| 2026-05-06 18:27 | 35.16498 | -80.95261 | 3159 ft | 184 kts | 213° |
| 2026-05-06 18:27 | 35.15592 | -80.96432 | 3347 ft | 204 kts | 243° |
| 2026-05-06 18:27 | 35.15079 | -80.98152 | 3509 ft | 227 kts | 252° |
| 2026-05-06 18:28 | 35.14649 | -81.00060 | 4043 ft | 237 kts | 254° |
| 2026-05-06 18:28 | 35.14231 | -81.02002 | 4828 ft | 238 kts | 255° |
| 2026-05-06 18:28 | 35.13809 | -81.03974 | 5551 ft | 241 kts | 255° |
| 2026-05-06 18:28 | 35.13377 | -81.05969 | 6260 ft | 244 kts | 256° |
| 2026-05-06 18:29 | 35.12941 | -81.07981 | 6968 ft | 246 kts | 256° |
| 2026-05-06 18:29 | 35.12501 | -81.09982 | 7820 ft | 241 kts | 256° |
| 2026-05-06 18:29 | 35.12061 | -81.11975 | 8509 ft | 245 kts | 257° |
| 2026-05-06 18:29 | 35.11624 | -81.13963 | 9341 ft | 241 kts | 257° |
| 2026-05-06 18:30 | 35.11187 | -81.15958 | 9968 ft | 245 kts | 258° |
| 2026-05-06 18:30 | 35.10742 | -81.17984 | 10314 ft | 259 kts | 257° |
| 2026-05-06 18:30 | 35.10250 | -81.20195 | 10473 ft | 280 kts | 257° |
| 2026-05-06 18:30 | 35.09718 | -81.22583 | 10619 ft | 303 kts | 257° |
| 2026-05-06 18:31 | 35.09145 | -81.25147 | 10873 ft | 322 kts | 256° |
| 2026-05-06 18:31 | 35.08548 | -81.27811 | 11525 ft | 328 kts | 256° |
| 2026-05-06 18:31 | 35.07937 | -81.30525 | 12166 ft | 335 kts | 256° |
| 2026-05-06 18:31 | 35.07322 | -81.33260 | 13155 ft | 333 kts | 256° |
| 2026-05-06 18:32 | 35.06704 | -81.36008 | 13933 ft | 338 kts | 256° |
| 2026-05-06 18:32 | 35.06079 | -81.38792 | 14654 ft | 342 kts | 257° |
| 2026-05-06 18:32 | 35.05444 | -81.41615 | 15367 ft | 347 kts | 257° |
| 2026-05-06 18:32 | 35.04801 | -81.44465 | 16143 ft | 351 kts | 257° |
| 2026-05-06 18:33 | 35.04100 | -81.47337 | 16895 ft | 356 kts | 254° |
| 2026-05-06 18:33 | 35.03173 | -81.50171 | 17628 ft | 363 kts | 251° |
| 2026-05-06 18:33 | 35.02198 | -81.53031 | 18362 ft | 368 kts | 251° |
| 2026-05-06 18:33 | 35.01226 | -81.55935 | 19058 ft | 372 kts | 251° |
| 2026-05-06 18:34 | 35.00244 | -81.58874 | 19778 ft | 376 kts | 251° |
| 2026-05-06 18:34 | 34.99261 | -81.61845 | 20479 ft | 380 kts | 252° |
| 2026-05-06 18:34 | 34.98277 | -81.64861 | 21171 ft | 385 kts | 252° |
| 2026-05-06 18:34 | 34.97285 | -81.67906 | 21923 ft | 387 kts | 252° |
| 2026-05-06 18:35 | 34.96284 | -81.70972 | 22602 ft | 391 kts | 252° |
| 2026-05-06 18:35 | 34.95270 | -81.74069 | 23240 ft | 396 kts | 251° |
| 2026-05-06 18:35 | 34.94243 | -81.77198 | 23787 ft | 400 kts | 251° |
| 2026-05-06 18:35 | 34.93092 | -81.80313 | 24280 ft | 406 kts | 247° |
| 2026-05-06 18:36 | 34.91706 | -81.83338 | 24766 ft | 412 kts | 242° |
| 2026-05-06 18:36 | 34.90087 | -81.86251 | 25248 ft | 417 kts | 240° |
| 2026-05-06 18:36 | 34.88437 | -81.89176 | 25709 ft | 421 kts | 240° |
| 2026-05-06 18:36 | 34.86779 | -81.92130 | 26192 ft | 424 kts | 240° |
| 2026-05-06 18:37 | 34.85111 | -81.95109 | 26634 ft | 427 kts | 240° |
| 2026-05-06 18:37 | 34.83432 | -81.98114 | 27058 ft | 431 kts | 240° |
| 2026-05-06 18:37 | 34.81738 | -82.01144 | 27500 ft | 434 kts | 240° |
| 2026-05-06 18:37 | 34.80034 | -82.04192 | 27939 ft | 438 kts | 240° |
| 2026-05-06 18:38 | 34.78315 | -82.07264 | 28336 ft | 441 kts | 239° |
| 2026-05-06 18:38 | 34.76583 | -82.10357 | 28712 ft | 444 kts | 239° |
| 2026-05-06 18:38 | 34.74841 | -82.13465 | 29049 ft | 447 kts | 239° |
| 2026-05-06 18:38 | 34.73084 | -82.16596 | 29342 ft | 450 kts | 240° |
| 2026-05-06 18:39 | 34.71316 | -82.19744 | 29663 ft | 452 kts | 240° |
| 2026-05-06 18:39 | 34.69561 | -82.22868 | 29960 ft | 455 kts | 240° |
| 2026-05-06 18:39 | 34.67751 | -82.26086 | 30242 ft | 456 kts | 240° |
| 2026-05-06 18:40 | 34.64185 | -82.32417 | 30813 ft | 457 kts | 240° |
| 2026-05-06 18:40 | 34.62371 | -82.35632 | 31211 ft | 454 kts | 240° |
| 2026-05-06 18:40 | 34.60595 | -82.38773 | 31666 ft | 450 kts | 240° |
| 2026-05-06 18:40 | 34.58834 | -82.41886 | 32156 ft | 445 kts | 240° |
| 2026-05-06 18:41 | 34.57090 | -82.44969 | 32606 ft | 441 kts | 240° |
| 2026-05-06 18:41 | 34.55357 | -82.48031 | 32988 ft | 439 kts | 240° |
| 2026-05-06 18:41 | 34.53654 | -82.51039 | 33308 ft | 438 kts | 240° |
| 2026-05-06 18:41 | 34.51933 | -82.54078 | 33685 ft | 436 kts | 240° |
| 2026-05-06 18:42 | 34.50219 | -82.57098 | 34076 ft | 432 kts | 242° |
| 2026-05-06 18:42 | 34.48532 | -82.60060 | 34693 ft | 423 kts | 242° |
| 2026-05-06 18:42 | 34.46870 | -82.62984 | 35137 ft | 419 kts | 243° |
| 2026-05-06 18:42 | 34.45220 | -82.65888 | 35506 ft | 418 kts | 243° |
| 2026-05-06 18:43 | 34.43576 | -82.68782 | 35812 ft | 416 kts | 243° |
| 2026-05-06 18:43 | 34.41935 | -82.71666 | 36131 ft | 415 kts | 243° |
| 2026-05-06 18:43 | 34.40301 | -82.74535 | 36478 ft | 413 kts | 243° |
| 2026-05-06 18:43 | 34.38677 | -82.77381 | 36841 ft | 410 kts | 243° |
| 2026-05-06 18:44 | 34.37066 | -82.80202 | 37352 ft | 404 kts | 244° |
| 2026-05-06 18:44 | 34.35478 | -82.82975 | 37841 ft | 398 kts | 244° |
| 2026-05-06 18:44 | 34.33908 | -82.85720 | 38173 ft | 396 kts | 244° |
| 2026-05-06 18:44 | 34.32337 | -82.88458 | 38413 ft | 396 kts | 244° |
| 2026-05-06 18:45 | 34.30766 | -82.91192 | 38659 ft | 395 kts | 244° |
| 2026-05-06 18:45 | 34.29199 | -82.93916 | 38869 ft | 394 kts | 244° |
| 2026-05-06 18:45 | 34.27633 | -82.96638 | 39006 ft | 395 kts | 244° |
| 2026-05-06 18:46 | 34.24470 | -83.02138 | 39119 ft | 400 kts | 244° |
| 2026-05-06 18:46 | 34.22878 | -83.04898 | 39304 ft | 400 kts | 244° |
| 2026-05-06 18:46 | 34.21289 | -83.07650 | 39478 ft | 400 kts | 244° |
| 2026-05-06 18:46 | 34.19698 | -83.10404 | 39649 ft | 400 kts | 244° |
| 2026-05-06 18:47 | 34.18106 | -83.13157 | 39814 ft | 400 kts | 244° |
| 2026-05-06 18:47 | 34.14934 | -83.18644 | 39925 ft | 402 kts | 244° |
| 2026-05-06 18:48 | 34.11745 | -83.24142 | 39953 ft | 398 kts | 244° |
| 2026-05-06 18:48 | 34.08583 | -83.29588 | 39964 ft | 395 kts | 244° |
| 2026-05-06 18:49 | 34.05432 | -83.35015 | 39963 ft | 395 kts | 244° |
| 2026-05-06 18:49 | 34.02281 | -83.40433 | 39947 ft | 394 kts | 244° |
| 2026-05-06 18:50 | 33.99124 | -83.45851 | 39975 ft | 396 kts | 243° |
| 2026-05-06 18:50 | 33.95949 | -83.51291 | 39991 ft | 398 kts | 243° |
| 2026-05-06 18:51 | 33.92757 | -83.56753 | 40000 ft | 399 kts | 243° |
| 2026-05-06 18:51 | 33.89557 | -83.62221 | 39993 ft | 400 kts | 243° |
| 2026-05-06 18:52 | 33.86542 | -83.67791 | 39992 ft | 393 kts | 249° |
| 2026-05-06 18:52 | 33.84204 | -83.73673 | 39982 ft | 386 kts | 255° |
| 2026-05-06 18:53 | 33.82362 | -83.79724 | 39984 ft | 385 kts | 256° |
| 2026-05-06 18:53 | 33.80545 | -83.85788 | 39980 ft | 386 kts | 256° |
| 2026-05-06 18:54 | 33.78715 | -83.91850 | 39981 ft | 385 kts | 256° |
| 2026-05-06 18:54 | 33.76876 | -83.97911 | 39981 ft | 386 kts | 255° |
| 2026-05-06 18:55 | 33.75029 | -84.03975 | 39980 ft | 387 kts | 255° |
| 2026-05-06 18:55 | 33.73188 | -84.10007 | 39964 ft | 387 kts | 255° |
| 2026-05-06 18:56 | 33.71330 | -84.16081 | 39968 ft | 387 kts | 255° |
| 2026-05-06 18:56 | 33.69468 | -84.22157 | 39961 ft | 388 kts | 255° |
| 2026-05-06 18:57 | 33.67604 | -84.28231 | 39967 ft | 388 kts | 255° |
| 2026-05-06 18:57 | 33.65738 | -84.34301 | 39977 ft | 387 kts | 255° |
| 2026-05-06 18:58 | 33.64293 | -84.39412 | 39979 ft | 383 kts | 261° |
| 2026-05-06 18:58 | 33.63385 | -84.45625 | 39985 ft | 380 kts | 265° |
| 2026-05-06 18:59 | 33.63062 | -84.51964 | 39984 ft | 378 kts | 272° |
| 2026-05-06 18:59 | 33.63232 | -84.58222 | 39978 ft | 378 kts | 272° |
| 2026-05-06 19:00 | 33.63416 | -84.64569 | 39965 ft | 378 kts | 272° |
| 2026-05-06 19:00 | 33.63584 | -84.70834 | 39961 ft | 378 kts | 272° |
| 2026-05-06 19:01 | 33.63740 | -84.77153 | 39963 ft | 379 kts | 272° |
| 2026-05-06 19:01 | 33.63891 | -84.83482 | 39976 ft | 380 kts | 272° |
| 2026-05-06 19:02 | 33.64038 | -84.89857 | 39995 ft | 380 kts | 271° |
| 2026-05-06 19:02 | 33.64180 | -84.96157 | 40008 ft | 380 kts | 271° |
| 2026-05-06 19:03 | 33.64321 | -85.02508 | 40022 ft | 381 kts | 272° |
| 2026-05-06 19:03 | 33.64458 | -85.08867 | 40023 ft | 381 kts | 271° |
| 2026-05-06 19:04 | 33.64592 | -85.15231 | 40029 ft | 382 kts | 271° |
| 2026-05-06 19:04 | 33.64723 | -85.21601 | 40027 ft | 382 kts | 271° |
| 2026-05-06 19:05 | 33.64851 | -85.27983 | 40021 ft | 382 kts | 271° |
| 2026-05-06 19:05 | 33.64975 | -85.34366 | 39949 ft | 383 kts | 271° |
| 2026-05-06 19:06 | 33.65097 | -85.40752 | 39935 ft | 383 kts | 271° |
| 2026-05-06 19:06 | 33.65215 | -85.47138 | 39933 ft | 382 kts | 271° |
| 2026-05-06 19:07 | 33.65329 | -85.53518 | 39948 ft | 382 kts | 271° |
| 2026-05-06 19:07 | 33.65441 | -85.59892 | 39948 ft | 382 kts | 271° |
| 2026-05-06 19:08 | 33.65549 | -85.66265 | 39954 ft | 382 kts | 271° |
| 2026-05-06 19:08 | 33.65654 | -85.72639 | 39954 ft | 382 kts | 271° |
| 2026-05-06 19:09 | 33.65755 | -85.79004 | 39975 ft | 381 kts | 271° |
| 2026-05-06 19:09 | 33.65853 | -85.85373 | 39959 ft | 382 kts | 271° |
| 2026-05-06 19:10 | 33.65948 | -85.91741 | 39968 ft | 382 kts | 271° |
| 2026-05-06 19:10 | 33.66040 | -85.98113 | 39923 ft | 382 kts | 271° |
| 2026-05-06 19:11 | 33.66128 | -86.04441 | 39929 ft | 382 kts | 271° |
| 2026-05-06 19:11 | 33.66213 | -86.10811 | 39926 ft | 382 kts | 271° |
| 2026-05-06 19:12 | 33.66295 | -86.17185 | 39962 ft | 382 kts | 271° |
| 2026-05-06 19:12 | 33.66374 | -86.23555 | 39969 ft | 381 kts | 270° |
| 2026-05-06 19:13 | 33.66449 | -86.29916 | 39927 ft | 381 kts | 270° |
| 2026-05-06 19:13 | 33.66521 | -86.36267 | 39925 ft | 380 kts | 270° |
| 2026-05-06 19:14 | 33.66589 | -86.42610 | 39932 ft | 380 kts | 270° |
| 2026-05-06 19:14 | 33.66655 | -86.48942 | 39942 ft | 379 kts | 270° |
| 2026-05-06 19:15 | 33.66717 | -86.55264 | 39954 ft | 379 kts | 270° |
| 2026-05-06 19:15 | 33.66776 | -86.61587 | 39949 ft | 379 kts | 270° |
| 2026-05-06 19:16 | 33.66831 | -86.67909 | 39960 ft | 379 kts | 270° |
| 2026-05-06 19:16 | 33.66883 | -86.74232 | 39961 ft | 379 kts | 270° |
| 2026-05-06 19:17 | 33.66933 | -86.80560 | 39966 ft | 379 kts | 270° |
| 2026-05-06 19:17 | 33.66979 | -86.86902 | 39956 ft | 380 kts | 270° |
| 2026-05-06 19:18 | 33.66675 | -86.93225 | 39950 ft | 380 kts | 263° |
| 2026-05-06 19:18 | 33.65979 | -86.99511 | 39944 ft | 380 kts | 263° |
| 2026-05-06 19:19 | 33.65286 | -87.05799 | 39938 ft | 380 kts | 263° |
| 2026-05-06 19:19 | 33.64592 | -87.12107 | 39896 ft | 382 kts | 263° |
| 2026-05-06 19:20 | 33.63896 | -87.18420 | 39909 ft | 382 kts | 263° |
| 2026-05-06 19:20 | 33.63199 | -87.24734 | 39919 ft | 382 kts | 263° |
| 2026-05-06 19:21 | 33.62498 | -87.31043 | 39913 ft | 382 kts | 263° |
| 2026-05-06 19:21 | 33.61797 | -87.37333 | 39898 ft | 384 kts | 263° |
| 2026-05-06 19:22 | 33.61085 | -87.43688 | 39904 ft | 385 kts | 263° |
| 2026-05-06 19:22 | 33.60360 | -87.50118 | 39890 ft | 387 kts | 263° |
| 2026-05-06 19:23 | 33.59641 | -87.56468 | 39884 ft | 386 kts | 263° |
| 2026-05-06 19:23 | 33.58917 | -87.62837 | 39880 ft | 385 kts | 263° |
| 2026-05-06 19:24 | 33.58192 | -87.69182 | 39890 ft | 384 kts | 263° |
| 2026-05-06 19:24 | 33.57467 | -87.75510 | 39873 ft | 382 kts | 262° |
| 2026-05-06 19:25 | 33.56738 | -87.81829 | 39882 ft | 383 kts | 262° |
| 2026-05-06 19:25 | 33.56004 | -87.88167 | 39876 ft | 385 kts | 262° |
| 2026-05-06 19:26 | 33.55265 | -87.94519 | 39882 ft | 384 kts | 262° |
| 2026-05-06 19:26 | 33.54525 | -88.00852 | 39941 ft | 384 kts | 262° |
| 2026-05-06 19:27 | 33.53780 | -88.07201 | 39943 ft | 385 kts | 262° |
| 2026-05-06 19:27 | 33.53030 | -88.13568 | 39936 ft | 386 kts | 262° |
| 2026-05-06 19:28 | 33.52274 | -88.19944 | 39938 ft | 387 kts | 262° |
| 2026-05-06 19:28 | 33.51514 | -88.26333 | 39935 ft | 387 kts | 262° |
| 2026-05-06 19:29 | 33.50750 | -88.32724 | 39932 ft | 387 kts | 262° |
| 2026-05-06 19:29 | 33.49984 | -88.39109 | 39934 ft | 387 kts | 262° |
| 2026-05-06 19:30 | 33.49216 | -88.45486 | 39968 ft | 386 kts | 262° |
| 2026-05-06 19:30 | 33.48543 | -88.51865 | 39978 ft | 386 kts | 265° |
| 2026-05-06 19:31 | 33.48447 | -88.58290 | 39976 ft | 386 kts | 268° |
| 2026-05-06 19:31 | 33.48404 | -88.67926 | 39970 ft | 385 kts | 268° |
| 2026-05-06 19:32 | 33.48365 | -88.74333 | 39941 ft | 385 kts | 268° |
| 2026-05-06 19:32 | 33.48321 | -88.80736 | 39941 ft | 384 kts | 268° |
| 2026-05-06 19:33 | 33.48274 | -88.87132 | 39945 ft | 384 kts | 267° |
| 2026-05-06 19:33 | 33.48223 | -88.93523 | 39940 ft | 383 kts | 267° |
| 2026-05-06 19:34 | 33.48169 | -88.99903 | 39947 ft | 383 kts | 267° |
| 2026-05-06 19:34 | 33.48112 | -89.06284 | 39975 ft | 383 kts | 267° |
| 2026-05-06 19:35 | 33.48051 | -89.12664 | 39967 ft | 383 kts | 267° |
| 2026-05-06 19:35 | 33.47987 | -89.19050 | 39966 ft | 383 kts | 267° |
| 2026-05-06 19:36 | 33.47920 | -89.25435 | 39986 ft | 383 kts | 267° |
| 2026-05-06 19:36 | 33.47850 | -89.31816 | 39968 ft | 383 kts | 267° |
| 2026-05-06 19:37 | 33.47777 | -89.38182 | 39962 ft | 382 kts | 267° |
| 2026-05-06 19:37 | 33.47713 | -89.43465 | 39970 ft | 381 kts | 267° |
| 2026-05-06 19:38 | 33.47621 | -89.50841 | 39966 ft | 381 kts | 266° |
| 2026-05-06 19:38 | 33.47538 | -89.57180 | 39965 ft | 381 kts | 266° |
| 2026-05-06 19:39 | 33.47452 | -89.63520 | 39961 ft | 381 kts | 266° |
| 2026-05-06 19:39 | 33.47362 | -89.69861 | 39971 ft | 381 kts | 266° |
| 2026-05-06 19:40 | 33.47270 | -89.76199 | 39965 ft | 381 kts | 266° |
| 2026-05-06 19:40 | 33.47174 | -89.82541 | 39967 ft | 381 kts | 266° |
| 2026-05-06 19:41 | 33.47076 | -89.88882 | 39968 ft | 381 kts | 266° |
| 2026-05-06 19:41 | 33.46973 | -89.95231 | 39971 ft | 381 kts | 266° |
| 2026-05-06 19:42 | 33.46867 | -90.01585 | 39993 ft | 382 kts | 266° |
| 2026-05-06 19:42 | 33.46759 | -90.07946 | 40006 ft | 382 kts | 266° |
| 2026-05-06 19:43 | 33.46666 | -90.13234 | 39998 ft | 382 kts | 266° |
| 2026-05-06 19:43 | 33.46551 | -90.19598 | 39999 ft | 382 kts | 266° |
| 2026-05-06 19:44 | 33.45952 | -90.25887 | 40005 ft | 380 kts | 258° |
| 2026-05-06 19:44 | 33.44673 | -90.32035 | 39994 ft | 381 kts | 254° |
| 2026-05-06 19:45 | 33.42677 | -90.37918 | 39994 ft | 382 kts | 249° |
| 2026-05-06 19:45 | 33.40491 | -90.43722 | 39989 ft | 383 kts | 248° |
| 2026-05-06 19:46 | 33.38308 | -90.49528 | 39991 ft | 383 kts | 248° |
| 2026-05-06 19:46 | 33.36135 | -90.55341 | 39990 ft | 383 kts | 249° |
| 2026-05-06 19:47 | 33.33965 | -90.61151 | 39995 ft | 383 kts | 249° |
| 2026-05-06 19:47 | 33.31809 | -90.66924 | 39993 ft | 383 kts | 249° |
| 2026-05-06 19:48 | 33.29636 | -90.72732 | 39995 ft | 383 kts | 248° |
| 2026-05-06 19:48 | 33.27462 | -90.78534 | 40012 ft | 383 kts | 248° |
| 2026-05-06 19:49 | 33.25284 | -90.84334 | 40000 ft | 382 kts | 248° |
| 2026-05-06 19:49 | 33.23105 | -90.90127 | 39993 ft | 382 kts | 248° |
| 2026-05-06 19:50 | 33.20929 | -90.95904 | 40003 ft | 381 kts | 248° |
| 2026-05-06 19:50 | 33.18751 | -91.01675 | 40003 ft | 381 kts | 248° |
| 2026-05-06 19:51 | 33.16572 | -91.07440 | 39999 ft | 381 kts | 248° |
| 2026-05-06 19:51 | 33.14391 | -91.13199 | 39957 ft | 380 kts | 248° |
| 2026-05-06 19:52 | 33.12211 | -91.18947 | 39990 ft | 381 kts | 248° |
| 2026-05-06 19:52 | 33.10022 | -91.24709 | 39985 ft | 382 kts | 248° |
| 2026-05-06 19:53 | 33.07828 | -91.30472 | 39991 ft | 382 kts | 248° |
| 2026-05-06 19:53 | 33.05628 | -91.36241 | 39988 ft | 382 kts | 248° |
| 2026-05-06 19:54 | 33.03425 | -91.42010 | 39981 ft | 382 kts | 248° |
| 2026-05-06 19:54 | 33.01216 | -91.47784 | 39982 ft | 383 kts | 248° |
| 2026-05-06 19:55 | 32.99004 | -91.53557 | 39999 ft | 383 kts | 248° |
| 2026-05-06 19:55 | 32.96788 | -91.59327 | 39989 ft | 383 kts | 248° |
| 2026-05-06 19:56 | 32.94574 | -91.65086 | 39986 ft | 382 kts | 248° |
| 2026-05-06 19:56 | 32.92358 | -91.70838 | 39978 ft | 382 kts | 248° |
| 2026-05-06 19:57 | 32.90142 | -91.76583 | 39979 ft | 382 kts | 248° |
| 2026-05-06 19:57 | 32.87924 | -91.82322 | 39980 ft | 382 kts | 248° |
| 2026-05-06 19:58 | 32.85706 | -91.88050 | 39987 ft | 381 kts | 247° |
| 2026-05-06 19:58 | 32.83482 | -91.93786 | 39990 ft | 382 kts | 247° |
| 2026-05-06 19:59 | 32.81266 | -91.99490 | 39995 ft | 383 kts | 247° |
| 2026-05-06 19:59 | 32.79029 | -92.05240 | 39986 ft | 384 kts | 247° |
| 2026-05-06 20:00 | 32.76786 | -92.10999 | 39987 ft | 384 kts | 247° |
| 2026-05-06 20:00 | 32.74538 | -92.16757 | 39983 ft | 384 kts | 247° |
| 2026-05-06 20:01 | 32.72288 | -92.22507 | 39967 ft | 384 kts | 247° |
| 2026-05-06 20:01 | 32.70035 | -92.28260 | 39959 ft | 384 kts | 247° |
| 2026-05-06 20:02 | 32.67781 | -92.34005 | 39964 ft | 384 kts | 247° |
| 2026-05-06 20:02 | 32.65527 | -92.39741 | 39947 ft | 383 kts | 247° |
| 2026-05-06 20:03 | 32.63275 | -92.45460 | 39954 ft | 383 kts | 247° |
| 2026-05-06 20:03 | 32.61019 | -92.51182 | 39934 ft | 383 kts | 247° |
| 2026-05-06 20:04 | 32.58763 | -92.56899 | 39883 ft | 382 kts | 246° |
| 2026-05-06 20:04 | 32.56510 | -92.62595 | 39926 ft | 382 kts | 246° |
| 2026-05-06 20:05 | 32.54249 | -92.68297 | 39958 ft | 382 kts | 246° |
| 2026-05-06 20:05 | 32.51982 | -92.74011 | 39945 ft | 383 kts | 246° |
| 2026-05-06 20:06 | 32.49726 | -92.79689 | 39945 ft | 384 kts | 246° |
| 2026-05-06 20:06 | 32.47454 | -92.85410 | 39962 ft | 383 kts | 248° |
| 2026-05-06 20:07 | 32.45793 | -92.91386 | 39961 ft | 382 kts | 255° |
| 2026-05-06 20:07 | 32.44614 | -92.97529 | 39957 ft | 383 kts | 260° |
| 2026-05-06 20:08 | 32.44089 | -93.03816 | 39961 ft | 384 kts | 262° |
| 2026-05-06 20:08 | 32.43631 | -93.10115 | 39964 ft | 384 kts | 262° |
| 2026-05-06 20:09 | 32.43161 | -93.16408 | 39956 ft | 384 kts | 262° |
| 2026-05-06 20:09 | 32.42678 | -93.22696 | 39959 ft | 383 kts | 262° |
| 2026-05-06 20:10 | 32.42188 | -93.28974 | 39962 ft | 383 kts | 262° |
| 2026-05-06 20:10 | 32.41692 | -93.35257 | 39957 ft | 383 kts | 262° |
| 2026-05-06 20:11 | 32.41194 | -93.41536 | 39947 ft | 383 kts | 262° |
| 2026-05-06 20:11 | 32.40694 | -93.47805 | 39943 ft | 383 kts | 262° |
| 2026-05-06 20:12 | 32.40191 | -93.54072 | 39940 ft | 382 kts | 262° |
| 2026-05-06 20:12 | 32.39684 | -93.60342 | 39938 ft | 383 kts | 262° |
| 2026-05-06 20:13 | 32.39177 | -93.66570 | 39939 ft | 383 kts | 262° |
| 2026-05-06 20:13 | 32.38660 | -93.72885 | 39935 ft | 383 kts | 262° |
| 2026-05-06 20:14 | 32.38148 | -93.79112 | 39934 ft | 383 kts | 262° |
| 2026-05-06 20:14 | 32.37629 | -93.85374 | 39940 ft | 382 kts | 262° |
| 2026-05-06 20:15 | 32.37108 | -93.91624 | 39935 ft | 381 kts | 262° |
| 2026-05-06 20:15 | 32.36585 | -93.97858 | 39935 ft | 380 kts | 262° |
| 2026-05-06 20:16 | 32.36061 | -94.04073 | 39941 ft | 380 kts | 262° |
| 2026-05-06 20:16 | 32.35534 | -94.10281 | 39953 ft | 379 kts | 262° |
| 2026-05-06 20:17 | 32.35005 | -94.16484 | 39957 ft | 379 kts | 262° |
| 2026-05-06 20:17 | 32.34472 | -94.22683 | 39966 ft | 379 kts | 262° |
| 2026-05-06 20:18 | 32.33937 | -94.28884 | 39943 ft | 379 kts | 262° |
| 2026-05-06 20:18 | 32.33399 | -94.35078 | 39943 ft | 379 kts | 262° |
| 2026-05-06 20:19 | 32.32858 | -94.41270 | 39942 ft | 378 kts | 262° |
| 2026-05-06 20:19 | 32.32315 | -94.47458 | 39940 ft | 378 kts | 262° |
| 2026-05-06 20:20 | 32.31768 | -94.53646 | 39933 ft | 378 kts | 262° |
| 2026-05-06 20:20 | 32.31218 | -94.59832 | 39942 ft | 379 kts | 262° |
| 2026-05-06 20:21 | 32.30665 | -94.66025 | 39931 ft | 379 kts | 262° |
| 2026-05-06 20:21 | 32.30109 | -94.72218 | 39940 ft | 379 kts | 262° |
| 2026-05-06 20:22 | 32.29550 | -94.78414 | 39942 ft | 379 kts | 262° |
| 2026-05-06 20:22 | 32.28987 | -94.84607 | 39944 ft | 379 kts | 262° |
| 2026-05-06 20:23 | 32.28421 | -94.90803 | 39937 ft | 379 kts | 262° |
| 2026-05-06 20:23 | 32.27854 | -94.96996 | 39948 ft | 379 kts | 261° |
| 2026-05-06 20:24 | 32.27266 | -95.03155 | 39255 ft | 376 kts | 261° |
| 2026-05-06 20:24 | 32.26937 | -95.06226 | 38475 ft | 378 kts | 261° |
| 2026-05-06 20:24 | 32.26601 | -95.09303 | 37668 ft | 378 kts | 261° |
| 2026-05-06 20:25 | 32.26267 | -95.12382 | 36888 ft | 378 kts | 260° |
| 2026-05-06 20:25 | 32.25936 | -95.15466 | 36115 ft | 379 kts | 260° |
| 2026-05-06 20:25 | 32.25608 | -95.18519 | 35302 ft | 381 kts | 260° |
| 2026-05-06 20:25 | 32.25323 | -95.21657 | 34406 ft | 387 kts | 262° |
| 2026-05-06 20:26 | 32.25221 | -95.24861 | 33423 ft | 394 kts | 266° |
| 2026-05-06 20:26 | 32.25312 | -95.28118 | 32407 ft | 399 kts | 268° |
| 2026-05-06 20:26 | 32.25411 | -95.31423 | 31551 ft | 406 kts | 268° |
| 2026-05-06 20:26 | 32.25503 | -95.34777 | 31295 ft | 411 kts | 268° |
| 2026-05-06 20:27 | 32.25593 | -95.38171 | 31114 ft | 416 kts | 268° |
| 2026-05-06 20:27 | 32.25684 | -95.41588 | 30967 ft | 416 kts | 268° |
| 2026-05-06 20:27 | 32.25862 | -95.48369 | 30939 ft | 403 kts | 268° |
| 2026-05-06 20:28 | 32.25947 | -95.51612 | 30934 ft | 387 kts | 267° |
| 2026-05-06 20:28 | 32.26026 | -95.54748 | 30939 ft | 380 kts | 267° |
| 2026-05-06 20:28 | 32.26172 | -95.60969 | 30950 ft | 379 kts | 267° |
| 2026-05-06 20:29 | 32.26318 | -95.67196 | 30949 ft | 379 kts | 267° |
| 2026-05-06 20:29 | 32.26463 | -95.73431 | 30948 ft | 381 kts | 267° |
| 2026-05-06 20:30 | 32.26681 | -95.82713 | 30138 ft | 358 kts | 267° |
| 2026-05-06 20:30 | 32.26750 | -95.85625 | 28596 ft | 352 kts | 267° |
| 2026-05-06 20:31 | 32.26814 | -95.88488 | 27043 ft | 347 kts | 267° |
| 2026-05-06 20:31 | 32.26855 | -95.90370 | 25999 ft | 344 kts | 267° |
| 2026-05-06 20:31 | 32.26935 | -95.94133 | 23974 ft | 341 kts | 267° |
| 2026-05-06 20:31 | 32.26974 | -95.95983 | 22928 ft | 339 kts | 267° |
| 2026-05-06 20:32 | 32.27053 | -95.99678 | 20846 ft | 333 kts | 266° |
| 2026-05-06 20:32 | 32.27092 | -96.01482 | 19907 ft | 329 kts | 266° |
| 2026-05-06 20:32 | 32.27148 | -96.04167 | 18531 ft | 326 kts | 266° |
| 2026-05-06 20:32 | 32.27221 | -96.07738 | 17904 ft | 326 kts | 266° |
| 2026-05-06 20:33 | 32.27258 | -96.09546 | 17663 ft | 326 kts | 267° |
| 2026-05-06 20:33 | 32.27311 | -96.12224 | 17275 ft | 327 kts | 267° |
| 2026-05-06 20:33 | 32.27365 | -96.14920 | 16885 ft | 329 kts | 267° |
| 2026-05-06 20:33 | 32.27419 | -96.17619 | 16498 ft | 328 kts | 267° |
| 2026-05-06 20:34 | 32.27473 | -96.20316 | 16108 ft | 328 kts | 267° |
| 2026-05-06 20:34 | 32.27526 | -96.22978 | 15719 ft | 328 kts | 267° |
| 2026-05-06 20:34 | 32.27578 | -96.25672 | 15338 ft | 328 kts | 267° |
| 2026-05-06 20:34 | 32.27629 | -96.28355 | 14972 ft | 325 kts | 267° |
| 2026-05-06 20:35 | 32.27814 | -96.30973 | 14546 ft | 319 kts | 278° |
| 2026-05-06 20:35 | 32.28627 | -96.33430 | 14184 ft | 324 kts | 292° |
| 2026-05-06 20:35 | 32.29958 | -96.35601 | 13795 ft | 330 kts | 305° |
| 2026-05-06 20:35 | 32.31543 | -96.37560 | 13362 ft | 328 kts | 307° |
| 2026-05-06 20:36 | 32.33224 | -96.39394 | 12968 ft | 329 kts | 313° |
| 2026-05-06 20:36 | 32.34994 | -96.41102 | 12553 ft | 327 kts | 314° |
| 2026-05-06 20:36 | 32.36747 | -96.42799 | 12163 ft | 324 kts | 314° |
| 2026-05-06 20:36 | 32.38424 | -96.44518 | 11763 ft | 310 kts | 307° |
| 2026-05-06 20:37 | 32.39601 | -96.46555 | 11425 ft | 296 kts | 292° |
| 2026-05-06 20:37 | 32.40547 | -96.48695 | 11086 ft | 292 kts | 293° |
| 2026-05-06 20:37 | 32.41506 | -96.50805 | 10730 ft | 290 kts | 294° |
| 2026-05-06 20:37 | 32.42468 | -96.52892 | 10393 ft | 288 kts | 294° |
| 2026-05-06 20:38 | 32.43429 | -96.54960 | 10062 ft | 286 kts | 294° |
| 2026-05-06 20:38 | 32.44383 | -96.57003 | 9805 ft | 280 kts | 294° |
| 2026-05-06 20:38 | 32.45327 | -96.59020 | 9443 ft | 278 kts | 295° |
| 2026-05-06 20:38 | 32.46265 | -96.61023 | 9031 ft | 278 kts | 295° |
| 2026-05-06 20:39 | 32.47199 | -96.63017 | 8685 ft | 276 kts | 295° |
| 2026-05-06 20:39 | 32.48127 | -96.64999 | 8345 ft | 274 kts | 295° |
| 2026-05-06 20:39 | 32.49017 | -96.66964 | 8016 ft | 265 kts | 289° |
| 2026-05-06 20:39 | 32.49383 | -96.69032 | 7673 ft | 251 kts | 270° |
| 2026-05-06 20:40 | 32.49456 | -96.71087 | 7383 ft | 249 kts | 271° |
| 2026-05-06 20:40 | 32.49573 | -96.73132 | 7072 ft | 249 kts | 271° |
| 2026-05-06 20:40 | 32.49693 | -96.75186 | 6760 ft | 251 kts | 272° |
| 2026-05-06 20:40 | 32.49812 | -96.77251 | 6428 ft | 252 kts | 272° |
| 2026-05-06 20:41 | 32.49930 | -96.79325 | 6116 ft | 254 kts | 272° |
| 2026-05-06 20:41 | 32.50168 | -96.81350 | 5999 ft | 245 kts | 287° |
| 2026-05-06 20:41 | 32.50918 | -96.83151 | 6001 ft | 244 kts | 295° |
| 2026-05-06 20:41 | 32.51703 | -96.84931 | 5999 ft | 243 kts | 294° |
| 2026-05-06 20:42 | 32.52465 | -96.86708 | 6000 ft | 241 kts | 294° |
| 2026-05-06 20:42 | 32.53220 | -96.88465 | 5991 ft | 238 kts | 294° |
| 2026-05-06 20:42 | 32.53973 | -96.90207 | 5978 ft | 236 kts | 294° |
| 2026-05-06 20:42 | 32.54715 | -96.91933 | 5976 ft | 235 kts | 294° |
| 2026-05-06 20:43 | 32.55454 | -96.93670 | 5995 ft | 237 kts | 293° |
| 2026-05-06 20:43 | 32.56165 | -96.95353 | 5946 ft | 214 kts | 295° |
| 2026-05-06 20:43 | 32.56806 | -96.96836 | 5971 ft | 197 kts | 293° |
| 2026-05-06 20:43 | 32.57421 | -96.98293 | 5983 ft | 197 kts | 292° |
| 2026-05-06 20:44 | 32.58021 | -96.99723 | 6021 ft | 190 kts | 294° |
| 2026-05-06 20:44 | 32.58616 | -97.01096 | 6016 ft | 185 kts | 296° |
| 2026-05-06 20:44 | 32.59560 | -97.02131 | 6008 ft | 195 kts | 332° |
| 2026-05-06 20:44 | 32.60941 | -97.02456 | 5771 ft | 211 kts | 347° |
| 2026-05-06 20:45 | 32.62399 | -97.02637 | 5439 ft | 210 kts | 351° |
| 2026-05-06 20:45 | 32.63849 | -97.02715 | 5155 ft | 207 kts | 353° |
| 2026-05-06 20:45 | 32.65282 | -97.02735 | 4884 ft | 205 kts | 355° |
| 2026-05-06 20:45 | 32.66689 | -97.02731 | 4612 ft | 200 kts | 356° |
| 2026-05-06 20:46 | 32.68065 | -97.02722 | 4328 ft | 196 kts | 356° |
| 2026-05-06 20:46 | 32.69407 | -97.02716 | 4070 ft | 190 kts | 358° |
| 2026-05-06 20:46 | 32.70708 | -97.02710 | 3834 ft | 184 kts | 359° |
| 2026-05-06 20:46 | 32.71960 | -97.02704 | 3590 ft | 177 kts | 359° |
| 2026-05-06 20:47 | 32.73159 | -97.02697 | 3361 ft | 167 kts | 1° |
| 2026-05-06 20:47 | 32.74265 | -97.02690 | 3154 ft | 152 kts | 1° |
| 2026-05-06 20:47 | 32.75282 | -97.02686 | 3072 ft | 145 kts | 2° |
| 2026-05-06 20:47 | 32.76292 | -97.02680 | 2883 ft | 142 kts | 2° |
| 2026-05-06 20:48 | 32.77251 | -97.02675 | 2743 ft | 134 kts | 2° |
| 2026-05-06 20:48 | 32.78170 | -97.02670 | 2541 ft | 133 kts | 3° |
| 2026-05-06 20:48 | 32.79068 | -97.02665 | 2361 ft | 125 kts | 2° |
| 2026-05-06 20:48 | 32.79927 | -97.02660 | 2177 ft | 124 kts | 1° |
| 2026-05-06 20:49 | 32.80795 | -97.02655 | 2014 ft | 125 kts | 1° |
| 2026-05-06 20:49 | 32.81676 | -97.02650 | 1844 ft | 127 kts | 0° |
| 2026-05-06 20:49 | 32.82545 | -97.02646 | 1673 ft | 122 kts | 0° |
| 2026-05-06 20:49 | 32.83408 | -97.02641 | 1482 ft | 126 kts | 359° |
| 2026-05-06 20:50 | 32.84280 | -97.02639 | 1323 ft | 128 kts | 359° |
| 2026-05-06 20:50 | 32.85183 | -97.02635 | 1162 ft | 130 kts | 1° |
| 2026-05-06 20:50 | 32.86086 | -97.02631 | 983 ft | 128 kts | 2° |
| 2026-05-06 20:50 | 32.86973 | -97.02620 | 783 ft | 129 kts | 2° |
| 2026-05-06 20:51 | 32.87889 | -97.02616 | 632 ft | 129 kts | 1° |
| 2026-05-06 20:51 | 32.88722 | -97.02612 | 582 ft | 109 kts | 0° |
| 2026-05-06 20:51 | 32.89297 | -97.02610 | 578 ft | 65 kts | 360° |
| 2026-05-06 20:51 | 32.89712 | -97.02609 | 575 ft | 48 kts | 358° |
| 2026-05-06 20:52 | 32.89979 | -97.02715 | 579 ft | 30 kts | 330° |
| 2026-05-06 20:52 | 32.90135 | -97.02799 | 580 ft | 23 kts | 353° |
| 2026-05-06 20:52 | 32.90294 | -97.02800 | 580 ft | 23 kts | 0° |
| 2026-05-06 20:52 | 32.90451 | -97.02798 | 582 ft | 23 kts | 1° |
| 2026-05-06 20:53 | 32.90608 | -97.02797 | 581 ft | 23 kts | 360° |
| 2026-05-06 20:53 | 32.90763 | -97.02797 | 581 ft | 22 kts | 0° |
| 2026-05-06 20:53 | 32.90885 | -97.02827 | 583 ft | 16 kts | 311° |
| 2026-05-06 20:53 | 32.90900 | -97.02959 | 579 ft | 20 kts | 267° |
| 2026-05-06 20:54 | 32.90902 | -97.03147 | 583 ft | 23 kts | 271° |
| 2026-05-06 20:54 | 32.90904 | -97.03297 | 589 ft | 23 kts | 270° |
| 2026-05-06 20:54 | 32.90909 | -97.03488 | 591 ft | 23 kts | 270° |
| 2026-05-06 20:54 | 32.90906 | -97.03680 | 597 ft | 23 kts | 269° |
| 2026-05-06 20:55 | 32.90907 | -97.03871 | 613 ft | 23 kts | 269° |
| 2026-05-06 20:55 | 32.90907 | -97.04063 | 614 ft | 23 kts | 269° |
| 2026-05-06 20:55 | 32.90907 | -97.04255 | 614 ft | 23 kts | 270° |
| 2026-05-06 20:55 | 32.90907 | -97.04446 | 605 ft | 23 kts | 270° |
| 2026-05-06 20:56 | 32.90908 | -97.04635 | 603 ft | 21 kts | 270° |
| 2026-05-06 20:56 | 32.90906 | -97.04746 | 615 ft | 4 kts | 244° |
| 2026-05-06 20:56 | 32.90834 | -97.04761 | 603 ft | 21 kts | 179° |
| 2026-05-06 20:56 | 32.90689 | -97.04760 | 602 ft | 21 kts | 180° |
| 2026-05-06 20:57 | 32.90544 | -97.04761 | 602 ft | 21 kts | 180° |
| 2026-05-06 20:57 | 32.90399 | -97.04761 | 602 ft | 21 kts | 180° |
| 2026-05-06 20:57 | 32.90255 | -97.04761 | 601 ft | 21 kts | 180° |
| 2026-05-06 20:57 | 32.90117 | -97.04762 | 602 ft | 18 kts | 180° |
| 2026-05-06 20:58 | 32.90008 | -97.04763 | 603 ft | 15 kts | 180° |
| 2026-05-06 20:58 | 32.89964 | -97.04720 | 602 ft | 8 kts | 97° |
| 2026-05-06 20:58 | 32.89967 | -97.04655 | 602 ft | 7 kts | 89° |
| 2026-05-06 20:58 | 32.89957 | -97.04602 | 603 ft | 5 kts | 108° |
| 2026-05-06 20:59 | 32.89950 | -97.04576 | 602 ft | 2 kts | 109° |
| 2026-05-06 20:59 | 32.89948 | -97.04569 | 602 ft | 0 kts | 109° |